Time;durP1;ratioP1;P1;durP2;ratioP2;P2;SDS_P1;SDS_P2;PMS_P1;PMS_P2;Temp;Humidity;BMP_temperature;BMP_pressure;BME280_temperature;BME280_humidity;BME280_pressure;Samples;Min_cycle;Max_cycle;Signal;HPM_P1;HPM_P2
2021/09/21 00:01:21;;;;;;;12.98;8.10;;;;;;;8.54;100.00;102296.72;5068122;28;20040;-71
2021/09/21 00:03:47;;;;;;;13.20;7.43;;;;;;;8.56;100.00;102300.13;5069546;28;20064;-71
2021/09/21 00:06:13;;;;;;;15.20;8.63;;;;;;;8.51;100.00;102287.16;5069216;28;20032;-71
2021/09/21 00:08:38;;;;;;;12.15;7.82;;;;;;;8.48;100.00;102291.88;5068377;28;20286;-71
2021/09/21 00:11:05;;;;;;;13.88;7.95;;;;;;;8.40;99.88;102285.25;5068699;28;20097;-71
2021/09/21 00:13:31;;;;;;;13.98;9.07;;;;;;;8.36;99.56;102282.94;5069499;28;20036;-71
2021/09/21 00:15:58;;;;;;;13.63;8.63;;;;;;;8.25;99.31;102281.03;5068362;28;20036;-71
2021/09/21 00:18:23;;;;;;;13.00;8.27;;;;;;;8.14;99.42;102279.13;5068479;28;20421;-71
2021/09/21 00:20:49;;;;;;;12.55;7.53;;;;;;;8.01;99.23;102279.16;5068189;28;20041;-71
2021/09/21 00:23:14;;;;;;;16.43;8.93;;;;;;;7.84;99.52;102287.44;5069564;28;20025;-71
2021/09/21 00:25:40;;;;;;;14.88;8.45;;;;;;;7.79;100.00;102289.56;5067935;28;20333;-71
2021/09/21 00:28:06;;;;;;;15.70;8.17;;;;;;;7.73;100.00;102296.19;5051766;28;20047;-71
2021/09/21 00:30:32;;;;;;;15.65;9.20;;;;;;;7.65;100.00;102298.50;5067932;28;20270;-71
2021/09/21 00:33:02;;;;;;;16.87;8.87;;;;;;;7.58;100.00;102292.75;5051659;28;20446;-71
2021/09/21 00:35:34;;;;;;;15.48;9.38;;;;;;;7.63;100.00;102304.88;5067869;28;20039;-71
2021/09/21 00:38:02;;;;;;;13.65;8.95;;;;;;;7.65;100.00;102302.97;5069164;28;20442;-71
2021/09/21 00:40:27;;;;;;;14.38;9.10;;;;;;;7.68;100.00;102297.44;5068793;28;20470;-71
2021/09/21 00:42:53;;;;;;;12.45;8.18;;;;;;;7.71;100.00;102297.25;5069179;28;20032;-71
2021/09/21 00:45:23;;;;;;;19.00;9.97;;;;;;;7.71;100.00;102281.28;5068731;28;20044;-71
2021/09/21 00:47:49;;;;;;;17.63;9.68;;;;;;;7.78;100.00;102290.56;5051074;28;20289;-71
2021/09/21 00:50:15;;;;;;;16.13;9.68;;;;;;;7.82;100.00;102273.44;5068589;28;20048;-71
2021/09/21 00:52:41;;;;;;;19.13;10.70;;;;;;;7.90;100.00;102275.53;5069009;28;20082;-71
2021/09/21 00:55:07;;;;;;;14.00;9.07;;;;;;;7.99;100.00;102278.41;5068638;28;20089;-72
2021/09/21 00:57:35;;;;;;;;;;;;;;;8.04;100.00;102276.25;5069277;28;20043;-71
2021/09/21 01:00:00;;;;;;;19.58;9.70;;;;;;;8.08;100.00;102276.03;5068368;28;19920;-71
2021/09/21 01:02:26;;;;;;;19.08;10.15;;;;;;;8.13;100.00;102271.25;5068749;28;20094;-71
2021/09/21 01:04:52;;;;;;;20.35;9.30;;;;;;;8.14;100.00;102259.66;5068168;28;20477;-71
2021/09/21 01:07:17;;;;;;;16.57;9.63;;;;;;;8.17;99.93;102254.09;5067797;28;20067;-71
2021/09/21 01:09:43;;;;;;;18.73;11.27;;;;;;;8.24;100.00;102255.34;5067485;28;20033;-71
2021/09/21 01:12:09;;;;;;;16.42;9.32;;;;;;;8.30;100.00;102256.75;5068566;28;20374;-71
2021/09/21 01:14:35;;;;;;;18.25;9.02;;;;;;;8.29;100.00;102258.56;5067121;28;20032;-71
2021/09/21 01:17:00;;;;;;;17.50;9.87;;;;;;;8.31;99.92;102253.97;5068380;28;20047;-71
2021/09/21 01:19:26;;;;;;;17.15;10.15;;;;;;;8.37;99.53;102245.53;5068363;28;20044;-72
2021/09/21 01:21:52;;;;;;;15.30;8.80;;;;;;;8.38;99.38;102239.28;5068522;28;20043;-72
2021/09/21 01:24:20;;;;;;;14.52;8.85;;;;;;;8.39;99.26;102230.31;5068456;28;20040;-71
2021/09/21 01:26:46;;;;;;;17.80;9.70;;;;;;;8.47;99.25;102236.91;5050708;28;20178;-71
2021/09/21 01:29:12;;;;;;;20.58;10.50;;;;;;;8.50;99.44;102231.34;5068193;28;20123;-71
2021/09/21 01:31:40;;;;;;;18.13;9.43;;;;;;;8.49;99.29;102232.34;5067326;28;20151;-71
2021/09/21 01:34:06;;;;;;;18.23;10.55;;;;;;;8.51;99.86;102235.72;5068353;28;20040;-71
2021/09/21 01:36:32;;;;;;;18.30;10.80;;;;;;;8.47;100.00;102239.56;5067146;28;20041;-71
2021/09/21 01:38:58;;;;;;;14.80;9.30;;;;;;;8.46;100.00;102249.38;5067296;28;20070;-71
2021/09/21 01:41:23;;;;;;;16.07;9.43;;;;;;;8.38;100.00;102249.91;5067283;28;20045;-71
2021/09/21 01:43:49;;;;;;;22.83;10.23;;;;;;;8.32;100.00;102255.66;5067324;28;20032;-71
2021/09/21 01:46:21;;;;;;;18.23;10.43;;;;;;;8.30;100.00;102252.25;5067926;28;20107;-71
2021/09/21 01:48:48;;;;;;;16.55;9.23;;;;;;;8.27;100.00;102256.97;5067018;28;20044;-71
2021/09/21 01:51:16;;;;;;;18.20;10.63;;;;;;;8.23;100.00;102259.00;5068158;28;20423;-71
2021/09/21 01:58:52;;;;;;;17.98;8.55;;;;;;;8.16;100.00;102263.91;5067041;28;20044;-71
2021/09/21 02:01:21;;;;;;;15.15;8.07;;;;;;;8.08;100.00;102262.72;5067458;28;20039;-71
2021/09/21 02:03:50;;;;;;;15.63;9.05;;;;;;;8.08;100.00;102268.94;5068166;28;20044;-71
2021/09/21 02:06:16;;;;;;;15.50;9.43;;;;;;;8.10;100.00;102261.69;5066366;28;20032;-71
2021/09/21 02:08:41;;;;;;;16.85;10.30;;;;;;;8.13;100.00;102266.78;5066844;28;20048;-71
2021/09/21 02:11:07;;;;;;;14.13;7.97;;;;;;;8.16;100.00;102265.72;5068379;28;20039;-71
2021/09/21 02:13:33;;;;;;;15.18;8.93;;;;;;;8.17;100.00;102262.06;5068027;28;20068;-71
2021/09/21 02:15:59;;;;;;;15.73;8.98;;;;;;;8.19;100.00;102282.31;5067958;28;20040;-72
2021/09/21 02:18:24;;;;;;;17.92;9.18;;;;;;;8.18;100.00;102288.59;5050264;28;20881;-71
2021/09/21 02:20:50;;;;;;;16.37;9.47;;;;;;;8.22;100.00;102286.56;5068068;28;20106;-71
2021/09/21 02:23:16;;;;;;;17.25;8.90;;;;;;;8.25;100.00;102294.31;5068003;28;20047;-72
2021/09/21 02:25:42;;;;;;;17.38;8.82;;;;;;;8.31;100.00;102306.31;5069586;28;20111;-71
2021/09/21 02:28:07;;;;;;;14.63;8.50;;;;;;;8.33;100.00;102307.06;5070595;28;20024;-71
2021/09/21 02:30:33;;;;;;;20.85;9.48;;;;;;;8.31;100.00;102307.19;5071625;28;20055;-71
2021/09/21 02:32:58;;;;;;;16.87;9.97;;;;;;;8.42;100.00;102317.09;5071687;28;20021;-71
2021/09/21 02:35:25;;;;;;;18.55;9.80;;;;;;;8.36;100.00;102306.88;5070615;28;20346;-71
2021/09/21 02:37:51;;;;;;;15.63;8.55;;;;;;;8.39;100.00;102312.81;5071432;28;20044;-71
2021/09/21 02:40:16;;;;;;;17.57;9.23;;;;;;;8.40;100.00;102311.88;5070611;28;20028;-71
2021/09/21 02:42:42;;;;;;;18.47;9.50;;;;;;;8.43;100.00;102326.81;5070765;28;20463;-71
2021/09/21 02:45:08;;;;;;;21.27;10.43;;;;;;;8.50;100.00;102319.19;5070350;28;20039;-71
2021/09/21 02:47:34;;;;;;;17.75;9.30;;;;;;;8.55;100.00;102309.09;5071484;28;20028;-71
2021/09/21 02:50:00;;;;;;;15.02;9.50;;;;;;;8.59;100.00;102302.56;5070027;28;20460;-71
2021/09/21 02:52:26;;;;;;;21.90;11.68;;;;;;;8.61;100.00;102300.63;5071457;28;20036;-71
2021/09/21 02:54:52;;;;;;;21.13;10.15;;;;;;;8.60;100.00;102304.28;5071157;28;20036;-71
2021/09/21 02:57:17;;;;;;;20.30;9.82;;;;;;;8.64;100.00;102306.59;5071381;28;20028;-71
2021/09/21 02:59:43;;;;;;;22.20;10.40;;;;;;;8.65;100.00;102304.78;5070996;28;20377;-71
2021/09/21 03:02:08;;;;;;;19.00;10.93;;;;;;;8.66;100.00;102304.69;5071428;28;20166;-71
2021/09/21 03:04:41;;;;;;;17.03;9.73;;;;;;;8.55;100.00;102288.63;5069565;28;20340;-71
2021/09/21 03:07:12;;;;;;;15.32;9.25;;;;;;;8.57;100.00;102286.72;5071256;28;20091;-71
2021/09/21 03:17:27;;;;;;;13.45;8.82;;;;;;;8.66;100.00;102291.38;5070957;28;20037;-71
2021/09/21 03:19:57;;;;;;;19.50;9.88;;;;;;;8.67;100.00;102281.56;5070589;28;20024;-71
2021/09/21 03:22:23;;;;;;;18.15;10.07;;;;;;;8.70;100.00;102276.00;5070978;28;20032;-72
2021/09/21 03:24:49;;;;;;;;;;;;;;;8.75;100.00;102284.50;5070892;28;20032;-71
2021/09/21 03:27:15;;;;;;;;;;;;;;;8.76;100.00;102283.56;5070214;28;19912;-71
2021/09/21 03:29:41;;;;;;;19.15;10.00;;;;;;;8.76;100.00;102280.91;5069386;28;20002;-71
2021/09/21 03:32:06;;;;;;;15.67;10.03;;;;;;;8.72;100.00;102286.56;5070798;28;20144;-71
2021/09/21 03:34:32;;;;;;;18.00;10.23;;;;;;;8.76;100.00;102294.22;5070172;28;20063;-71
2021/09/21 03:36:58;;;;;;;17.48;9.02;;;;;;;8.77;100.00;102298.56;5070339;28;20024;-71
2021/09/21 03:39:24;;;;;;;14.55;8.73;;;;;;;8.82;100.00;102306.22;5069422;28;20028;-71
2021/09/21 03:41:49;;;;;;;18.67;9.67;;;;;;;8.81;100.00;102299.19;5069464;28;20028;-71
2021/09/21 03:44:15;;;;;;;16.30;8.60;;;;;;;8.79;100.00;102293.97;5069367;28;20273;-71
2021/09/21 03:46:40;;;;;;;13.43;8.73;;;;;;;8.71;100.00;102288.38;5070128;28;20040;-71
2021/09/21 03:49:06;;;;;;;14.40;9.18;;;;;;;8.67;100.00;102278.91;5070158;28;20032;-71
2021/09/21 03:51:31;;;;;;;15.80;8.10;;;;;;;8.77;100.00;102295.06;5069204;28;20436;-71
2021/09/21 03:53:57;;;;;;;16.30;10.23;;;;;;;8.81;100.00;102288.53;5070129;28;20366;-72
2021/09/21 03:56:22;;;;;;;13.60;8.87;;;;;;;8.86;100.00;102297.88;5069722;28;20629;-71
2021/09/21 03:58:48;;;;;;;11.53;7.87;;;;;;;8.88;100.00;102289.78;5068947;28;20127;-71
2021/09/21 04:01:13;;;;;;;14.70;9.68;;;;;;;8.93;100.00;102289.44;5069933;28;20132;-72
2021/09/21 04:03:39;;;;;;;17.30;9.30;;;;;;;8.91;100.00;102288.72;5069140;28;20032;-72
2021/09/21 04:06:04;;;;;;;14.13;8.85;;;;;;;8.93;100.00;102270.81;5068108;28;20071;-71
2021/09/21 04:08:30;;;;;;;13.57;8.23;;;;;;;8.96;100.00;102281.22;5069669;28;20674;-71
2021/09/21 04:10:55;;;;;;;13.67;8.63;;;;;;;8.97;100.00;102285.59;5069623;28;20357;-71
2021/09/21 04:13:21;;;;;;;16.40;7.90;;;;;;;9.01;100.00;102289.72;5069797;28;20294;-71
2021/09/21 04:15:46;;;;;;;15.90;8.35;;;;;;;8.98;100.00;102282.81;5069486;28;20043;-72
2021/09/21 04:18:12;;;;;;;13.57;7.37;;;;;;;8.98;100.00;102271.31;5068684;28;20024;-71
2021/09/21 04:20:37;;;;;;;15.00;7.80;;;;;;;9.02;100.00;102270.13;5069393;28;20047;-71
2021/09/21 04:23:03;;;;;;;15.57;9.03;;;;;;;9.04;100.00;102278.84;5069378;28;20044;-71
2021/09/21 04:25:30;;;;;;;11.50;7.43;;;;;;;9.08;100.00;102285.63;5068310;28;20039;-71
2021/09/21 04:27:57;;;;;;;12.93;8.00;;;;;;;9.05;100.00;102277.88;5069252;28;20415;-71
2021/09/21 04:30:23;;;;;;;13.52;7.30;;;;;;;9.07;100.00;102278.59;5068304;28;20040;-71
2021/09/21 04:32:49;;;;;;;17.48;8.18;;;;;;;9.06;100.00;102282.22;5069186;28;20434;-71
2021/09/21 04:35:15;;;;;;;13.60;8.95;;;;;;;9.12;100.00;102280.94;5068259;28;20064;-71
2021/09/21 04:37:41;;;;;;;13.00;7.43;;;;;;;9.12;100.00;102287.09;5069003;28;20413;-71
2021/09/21 04:40:07;;;;;;;18.50;8.65;;;;;;;9.12;100.00;102287.09;5068876;28;20127;-71
2021/09/21 04:42:33;;;;;;;11.13;7.15;;;;;;;9.16;100.00;102277.91;5069082;28;20407;-71
2021/09/21 04:44:59;;;;;;;11.23;8.23;;;;;;;9.16;100.00;102282.41;5051305;28;20128;-71
2021/09/21 04:47:24;;;;;;;13.57;8.87;;;;;;;9.17;100.00;102290.25;5067394;28;20032;-71
2021/09/21 04:49:50;;;;;;;15.60;7.70;;;;;;;9.21;100.00;102310.38;5068568;28;20487;-72
2021/09/21 04:52:20;;;;;;;11.63;7.00;;;;;;;9.19;100.00;102314.13;5068615;28;20361;-72
2021/09/21 04:54:50;;;;;;;11.35;7.32;;;;;;;9.24;100.00;102315.47;5068754;28;20040;-71
2021/09/21 04:57:17;;;;;;;12.63;7.25;;;;;;;9.26;100.00;102318.88;5067591;28;20465;-71
2021/09/21 04:59:44;;;;;;;15.27;8.27;;;;;;;9.28;100.00;102321.44;5068680;28;20464;-71
2021/09/21 05:02:09;;;;;;;15.18;7.38;;;;;;;9.25;100.00;102303.88;5067848;28;20024;-71
2021/09/21 05:04:34;;;;;;;12.60;7.23;;;;;;;9.34;100.00;102317.44;5067504;28;20090;-71
2021/09/21 05:07:00;;;;;;;11.47;7.60;;;;;;;9.33;100.00;102307.78;5068628;28;20067;-71
2021/09/21 05:09:25;;;;;;;14.07;9.00;;;;;;;9.38;100.00;102309.09;5067239;28;20051;-71
2021/09/21 05:11:52;;;;;;;15.07;7.72;;;;;;;9.41;100.00;102308.91;5067701;28;20454;-71
2021/09/21 05:14:19;;;;;;;13.88;7.45;;;;;;;9.45;100.00;102307.66;5067266;28;20043;-71
2021/09/21 05:16:45;;;;;;;17.10;8.17;;;;;;;9.47;100.00;102302.22;5067595;28;20032;-71
2021/09/21 05:19:11;;;;;;;15.07;7.95;;;;;;;9.47;100.00;102292.41;5050441;28;20043;-71
2021/09/21 05:21:38;;;;;;;14.18;7.70;;;;;;;9.54;100.00;102271.47;5068591;28;20040;-71
2021/09/21 05:24:05;;;;;;;18.40;9.27;;;;;;;9.56;100.00;102274.88;5067204;28;20040;-71
2021/09/21 05:26:30;;;;;;;14.90;8.68;;;;;;;9.57;100.00;102265.88;5067499;28;20044;-71
2021/09/21 05:28:56;;;;;;;13.77;7.63;;;;;;;9.63;100.00;102257.41;5067133;28;20051;-71
2021/09/21 05:31:21;;;;;;;15.20;7.75;;;;;;;9.71;100.00;102251.47;5068372;28;20086;-71
2021/09/21 05:33:46;;;;;;;14.20;7.27;;;;;;;9.73;98.75;102246.88;5068112;28;20043;-71
2021/09/21 05:36:12;;;;;;;14.70;7.57;;;;;;;9.76;98.18;102245.78;5068227;28;20051;-71
2021/09/21 05:38:37;;;;;;;10.47;6.80;;;;;;;9.81;98.57;102252.47;5067025;28;20083;-71
2021/09/21 05:41:03;;;;;;;16.08;8.43;;;;;;;9.84;99.19;102256.72;5068176;28;20028;-72
2021/09/21 05:43:29;;;;;;;10.10;6.77;;;;;;;9.83;99.69;102276.34;5068121;28;20029;-72
2021/09/21 05:45:54;;;;;;;12.45;6.63;;;;;;;9.79;100.00;102275.75;5067690;28;20039;-71
2021/09/21 05:48:19;;;;;;;13.70;7.23;;;;;;;9.83;100.00;102281.69;5066703;28;20044;-71
2021/09/21 05:50:45;;;;;;;11.83;7.10;;;;;;;9.85;100.00;102282.41;5067629;28;20036;-71
2021/09/21 05:53:10;;;;;;;11.90;6.63;;;;;;;9.87;100.00;102283.16;5066916;28;20036;-71
2021/09/21 05:55:36;;;;;;;14.93;6.80;;;;;;;9.89;100.00;102275.88;5066825;28;20044;-72
2021/09/21 05:58:01;;;;;;;15.20;7.70;;;;;;;9.92;98.09;102259.63;5068214;28;20052;-71
2021/09/21 06:00:26;;;;;;;8.37;5.77;;;;;;;10.01;94.58;102242.88;5068297;28;20036;-71
2021/09/21 06:02:52;;;;;;;13.10;6.07;;;;;;;10.15;92.48;102249.78;5071284;28;20108;-71
2021/09/21 06:05:17;;;;;;;8.50;4.60;;;;;;;10.30;90.84;102248.59;5071752;28;20028;-72
2021/09/21 06:07:44;;;;;;;8.60;6.13;;;;;;;10.34;89.90;102259.84;5071809;28;20439;-72
2021/09/21 06:10:10;;;;;;;10.00;5.45;;;;;;;10.35;89.70;102242.88;5071093;28;20120;-72
2021/09/21 06:12:35;;;;;;;10.63;5.30;;;;;;;10.50;88.70;102257.63;5072090;28;20186;-72
2021/09/21 06:15:01;;;;;;;10.37;5.80;;;;;;;10.52;88.57;102263.72;5071613;28;20125;-72
2021/09/21 06:17:27;;;;;;;10.93;6.38;;;;;;;10.61;88.58;102267.47;5070959;28;20032;-72
2021/09/21 06:19:53;;;;;;;10.73;6.33;;;;;;;10.55;88.52;102279.47;5071527;28;20037;-72
2021/09/21 06:22:18;;;;;;;9.67;6.10;;;;;;;10.53;89.65;102286.75;5070544;28;20370;-72
2021/09/21 06:24:44;;;;;;;11.30;6.00;;;;;;;10.60;89.25;102276.41;5070740;28;20087;-73
2021/09/21 06:27:09;;;;;;;10.60;6.53;;;;;;;10.65;88.58;102278.72;5070468;28;20540;-72
2021/09/21 06:29:35;;;;;;;8.87;5.80;;;;;;;10.71;87.87;102278.22;5071466;28;20037;-71
2021/09/21 06:32:00;;;;;;;8.03;5.77;;;;;;;10.77;87.38;102273.22;5071529;28;20040;-67
2021/09/21 06:34:25;;;;;;;11.10;6.43;;;;;;;10.88;85.92;102275.00;5070379;28;20527;-67
2021/09/21 06:36:53;;;;;;;9.67;5.70;;;;;;;11.17;84.39;102258.38;5070959;28;20028;-67
2021/09/21 06:39:20;;;;;;;12.65;5.85;;;;;;;11.30;84.51;102267.03;5071343;28;20036;-67
2021/09/21 06:41:47;;;;;;;12.02;6.05;;;;;;;11.46;83.37;102258.56;5069926;28;20070;-67
2021/09/21 06:44:13;;;;;;;8.93;6.55;;;;;;;11.59;83.13;102269.91;5069724;28;20048;-67
2021/09/21 06:46:38;;;;;;;9.83;6.17;;;;;;;11.58;83.00;102275.38;5069710;28;20037;-67
2021/09/21 06:49:04;;;;;;;15.57;8.18;;;;;;;11.59;83.65;102279.78;5069702;28;20131;-67
2021/09/21 06:51:31;;;;;;;14.63;7.47;;;;;;;11.66;83.40;102275.59;5068776;28;20047;-67
2021/09/21 06:53:57;;;;;;;12.38;6.95;;;;;;;11.66;83.94;102277.38;5069734;28;20380;-67
2021/09/21 06:56:27;;;;;;;10.45;6.10;;;;;;;11.49;83.41;102278.84;5070842;28;20024;-67
2021/09/21 06:58:53;;;;;;;15.52;7.65;;;;;;;11.42;84.91;102294.56;5069952;28;20071;-67
2021/09/21 07:01:18;;;;;;;11.98;7.60;;;;;;;11.37;84.85;102294.94;5070124;28;20037;-67
2021/09/21 07:03:44;;;;;;;16.40;7.97;;;;;;;11.44;85.49;102295.28;5070933;28;20033;-67
2021/09/21 07:06:10;;;;;;;12.73;7.97;;;;;;;11.39;85.67;102286.81;5069531;28;20040;-67
2021/09/21 07:08:35;;;;;;;14.98;8.50;;;;;;;11.48;85.79;102288.69;5070400;28;20105;-67
2021/09/21 07:11:01;;;;;;;15.30;8.37;;;;;;;11.23;87.75;102303.28;5070277;28;20041;-67
2021/09/21 07:13:26;;;;;;;13.37;8.93;;;;;;;11.14;89.51;102312.06;5070748;28;20555;-67
2021/09/21 07:15:52;;;;;;;13.10;8.60;;;;;;;11.20;90.22;102312.41;5053046;28;20097;-67
2021/09/21 07:18:17;;;;;;;16.40;9.00;;;;;;;11.17;90.63;102303.81;5070717;28;20412;-67
2021/09/21 07:20:43;;;;;;;18.83;9.60;;;;;;;11.32;90.49;102296.31;5070597;28;20032;-67
2021/09/21 07:23:08;;;;;;;13.40;8.93;;;;;;;11.36;91.38;102305.78;5070548;28;20112;-67
2021/09/21 07:25:34;;;;;;;15.33;9.40;;;;;;;11.20;91.89;102312.41;5052901;28;20040;-68
2021/09/21 07:28:02;;;;;;;16.27;9.57;;;;;;;11.12;93.39;102322.03;5069395;28;20047;-67
2021/09/21 07:30:30;;;;;;;15.30;8.68;;;;;;;10.95;94.83;102329.63;5070363;28;20111;-67
2021/09/21 07:32:55;;;;;;;13.68;8.32;;;;;;;10.70;96.83;102338.81;5069373;28;20048;-67
2021/09/21 07:35:21;;;;;;;16.47;8.67;;;;;;;10.69;97.70;102345.13;5070379;28;20101;-67
2021/09/21 07:37:46;;;;;;;15.70;8.83;;;;;;;10.69;98.70;102361.16;5070286;28;20037;-67
2021/09/21 07:40:12;;;;;;;15.38;8.52;;;;;;;10.60;99.03;102356.56;5070159;28;20416;-67
2021/09/21 07:42:38;;;;;;;15.07;8.55;;;;;;;10.49;99.45;102354.75;5070467;28;20071;-68
2021/09/21 07:45:05;;;;;;;21.52;10.30;;;;;;;10.45;99.96;102369.31;5069095;28;20029;-67
2021/09/21 07:47:31;;;;;;;18.02;9.02;;;;;;;10.46;99.75;102373.66;5069124;28;20036;-67
2021/09/21 07:49:56;;;;;;;14.53;8.23;;;;;;;10.31;99.51;102362.41;5068924;28;20036;-67
2021/09/21 07:52:22;;;;;;;16.08;9.02;;;;;;;10.22;99.26;102349.75;5069268;28;20032;-67
2021/09/21 07:54:48;;;;;;;15.98;9.15;;;;;;;10.39;99.53;102364.44;5069809;28;20182;-67
2021/09/21 07:57:13;;;;;;;17.90;9.13;;;;;;;10.01;100.00;102370.97;5069140;28;20040;-67
2021/09/21 07:59:41;;;;;;;16.63;9.25;;;;;;;9.97;100.00;102392.66;5069635;28;20043;-67
2021/09/21 08:02:11;;;;;;;12.48;8.10;;;;;;;10.10;100.00;102396.09;5069949;28;20044;-67
2021/09/21 08:04:38;;;;;;;12.98;8.15;;;;;;;10.17;100.00;102401.81;5069610;28;20131;-68
2021/09/21 08:07:04;;;;;;;14.38;8.48;;;;;;;10.10;100.00;102391.59;5069770;28;20028;-67
2021/09/21 08:09:30;;;;;;;13.85;7.80;;;;;;;10.17;100.00;102375.09;5069198;28;20036;-67
2021/09/21 08:11:56;;;;;;;17.38;7.80;;;;;;;10.20;100.00;102358.84;5068918;28;20036;-67
2021/09/21 08:14:21;;;;;;;12.70;7.97;;;;;;;10.43;100.00;102349.06;5068366;28;20040;-67
2021/09/21 08:16:47;;;;;;;13.35;7.22;;;;;;;10.40;99.68;102350.16;5068743;28;20464;-67
2021/09/21 08:19:12;;;;;;;13.53;7.00;;;;;;;10.58;99.52;102342.47;5069109;28;20032;-67
2021/09/21 08:21:38;;;;;;;14.13;7.85;;;;;;;10.62;99.81;102343.09;5052226;28;20036;-67
2021/09/21 08:24:05;;;;;;;10.17;6.97;;;;;;;10.54;99.39;102338.38;5068540;28;20040;-67
2021/09/21 08:26:31;;;;;;;13.57;7.32;;;;;;;10.42;100.00;102353.56;5069303;28;20267;-67
2021/09/21 08:28:57;;;;;;;11.73;7.30;;;;;;;10.37;100.00;102353.03;5069143;28;20037;-67
2021/09/21 08:31:23;;;;;;;12.05;7.03;;;;;;;10.17;100.00;102359.09;5069310;28;20035;-67
2021/09/21 08:33:49;;;;;;;15.52;8.18;;;;;;;10.19;100.00;102373.19;5068256;28;20453;-67
2021/09/21 08:36:15;;;;;;;13.45;8.43;;;;;;;10.09;100.00;102395.25;5067951;28;20525;-67
2021/09/21 08:38:40;;;;;;;13.98;8.52;;;;;;;10.11;100.00;102403.97;5068224;28;20051;-67
2021/09/21 08:41:06;;;;;;;13.27;8.53;;;;;;;10.19;100.00;102387.38;5069109;28;20190;-67
2021/09/21 08:43:32;;;;;;;13.00;8.57;;;;;;;10.15;100.00;102397.41;5068393;28;20027;-67
2021/09/21 08:45:57;;;;;;;14.55;8.68;;;;;;;10.06;100.00;102394.63;5067774;28;20103;-67
2021/09/21 08:48:25;;;;;;;14.43;8.10;;;;;;;9.99;100.00;102388.91;5067965;28;20123;-68
2021/09/21 08:50:51;;;;;;;12.00;8.23;;;;;;;10.04;100.00;102385.88;5067759;28;20639;-68
2021/09/21 08:53:16;;;;;;;16.25;9.68;;;;;;;10.00;100.00;102382.63;5068043;28;20037;-67
2021/09/21 08:55:42;;;;;;;16.60;9.90;;;;;;;10.18;100.00;102387.47;5067855;28;20044;-67
2021/09/21 08:58:08;;;;;;;18.50;9.32;;;;;;;10.27;100.00;102378.75;5068872;28;20036;-67
2021/09/21 09:00:35;;;;;;;13.70;9.13;;;;;;;10.42;100.00;102374.91;5067430;28;20058;-68
2021/09/21 09:03:04;;;;;;;14.20;9.38;;;;;;;10.47;100.00;102355.84;5068723;28;20044;-67
2021/09/21 09:05:55;;;;;;;13.80;8.48;;;;;;;10.63;100.00;102342.09;5068701;28;20047;-68
2021/09/21 09:08:33;;;;;;;14.20;8.75;;;;;;;10.78;100.00;102335.53;5051513;28;20043;-68
2021/09/21 09:11:17;;;;;;;15.40;9.57;;;;;;;10.82;100.00;102331.63;5068449;28;20037;-68
2021/09/21 09:13:44;;;;;;;17.30;9.02;;;;;;;10.83;100.00;102311.94;5067728;28;20546;-67
2021/09/21 09:16:15;;;;;;;14.32;7.85;;;;;;;11.10;100.00;102314.16;5067319;28;20534;-68
2021/09/21 09:18:43;;;;;;;14.38;8.25;;;;;;;11.07;99.42;102305.53;5067562;28;20041;-68
2021/09/21 09:21:10;;;;;;;13.00;7.63;;;;;;;11.17;99.12;102303.81;5068349;28;20040;-68
2021/09/21 09:23:52;;;;;;;11.47;7.63;;;;;;;11.44;98.01;102297.94;5067714;28;20069;-68
2021/09/21 09:26:23;;;;;;;16.98;7.78;;;;;;;11.31;97.27;102291.97;5067462;28;20266;-68
2021/09/21 09:28:54;;;;;;;12.45;7.10;;;;;;;11.35;97.58;102288.88;5067414;28;20042;-67
2021/09/21 09:31:39;;;;;;;13.77;8.20;;;;;;;11.40;96.74;102297.38;5067596;28;20037;-68
2021/09/21 09:34:08;;;;;;;13.02;8.07;;;;;;;11.60;96.17;102289.47;5068220;28;20135;-68
2021/09/21 09:36:49;;;;;;;12.32;7.82;;;;;;;11.77;95.01;102274.63;5068386;28;20036;-68
2021/09/21 09:39:17;;;;;;;12.85;7.70;;;;;;;11.74;95.13;102274.91;5067387;28;20037;-68
2021/09/21 09:41:44;;;;;;;11.88;7.35;;;;;;;11.88;93.29;102279.09;5068354;28;20123;-68
2021/09/21 09:44:19;;;;;;;11.93;7.45;;;;;;;11.95;92.70;102272.22;5068167;28;20031;-68
2021/09/21 09:46:48;;;;;;;11.48;7.60;;;;;;;12.04;92.54;102269.59;5068345;28;20101;-68
2021/09/21 09:49:14;;;;;;;12.27;7.75;;;;;;;12.08;92.31;102269.31;5068068;28;20062;-68
2021/09/21 09:51:45;;;;;;;13.23;7.95;;;;;;;11.95;91.29;102242.78;5067621;28;20093;-68
2021/09/21 09:54:10;;;;;;;13.35;8.07;;;;;;;11.95;92.13;102264.19;5067058;28;20670;-68
2021/09/21 09:56:36;;;;;;;12.03;7.27;;;;;;;12.01;92.19;102269.00;5067208;28;20056;-68
2021/09/21 09:59:02;;;;;;;14.63;6.95;;;;;;;11.98;91.17;102250.53;5067994;28;20033;-67
2021/09/21 10:01:27;;;;;;;11.75;7.85;;;;;;;12.16;90.25;102254.28;5068456;28;20042;-68
2021/09/21 10:03:53;;;;;;;12.60;7.87;;;;;;;12.35;90.63;102256.16;5067396;28;20472;-68
2021/09/21 10:06:18;;;;;;;14.63;8.07;;;;;;;12.17;89.86;102250.59;5067364;28;20033;-68
2021/09/21 10:08:45;;;;;;;12.73;8.03;;;;;;;12.20;89.13;102257.53;5066612;28;20169;-68
2021/09/21 10:11:11;;;;;;;12.35;7.25;;;;;;;12.32;89.26;102253.75;5068368;28;20054;-68
2021/09/21 10:13:38;;;;;;;12.60;7.90;;;;;;;12.25;89.43;102260.66;5068036;28;20037;-68
2021/09/21 10:16:03;;;;;;;11.95;6.97;;;;;;;12.11;89.94;102264.53;5068064;28;20097;-68
2021/09/21 10:18:30;;;;;;;14.57;8.43;;;;;;;12.21;90.88;102273.44;5067857;28;20036;-68
2021/09/21 10:20:58;;;;;;;12.18;8.10;;;;;;;12.19;91.05;102275.41;5068190;28;20039;-67
2021/09/21 10:23:34;;;;;;;14.23;7.75;;;;;;;12.23;90.32;102284.03;5067987;28;20086;-68
2021/09/21 10:26:17;;;;;;;13.15;7.80;;;;;;;12.11;90.72;102280.59;5066958;28;20036;-68
2021/09/21 10:28:46;;;;;;;12.98;8.02;;;;;;;12.06;92.98;102285.53;5067705;28;20060;-68
2021/09/21 10:31:13;;;;;;;13.40;9.13;;;;;;;12.00;93.54;102294.09;5068122;28;20067;-68
2021/09/21 10:33:39;;;;;;;18.77;9.60;;;;;;;11.86;93.94;102291.72;5067782;28;20063;-68
2021/09/21 10:36:16;;;;;;;14.18;8.95;;;;;;;11.77;93.81;102288.00;5066933;28;20076;-68
2021/09/21 10:38:53;;;;;;;15.20;9.70;;;;;;;11.71;95.31;102292.09;5067801;28;20032;-68
2021/09/21 10:41:20;;;;;;;15.45;9.60;;;;;;;11.68;95.67;102300.34;5068083;28;20032;-68
2021/09/21 10:43:57;;;;;;;16.67;10.20;;;;;;;11.52;98.15;102316.00;5067910;28;20047;-68
2021/09/21 10:46:23;;;;;;;18.17;10.57;;;;;;;11.56;99.01;102320.13;5068860;28;20056;-68
2021/09/21 10:48:48;;;;;;;20.30;10.97;;;;;;;11.39;100.00;102333.09;5071057;28;20441;-68
2021/09/21 10:51:14;;;;;;;19.85;12.23;;;;;;;11.45;100.00;102346.94;5070285;28;20554;-68
2021/09/21 10:53:41;;;;;;;22.40;11.70;;;;;;;11.40;100.00;102345.53;5071141;28;20165;-68
2021/09/21 10:56:14;;;;;;;23.25;12.93;;;;;;;11.36;100.00;102336.06;5069405;28;20082;-68
2021/09/21 10:58:51;;;;;;;25.45;14.38;;;;;;;11.44;100.00;102327.38;5069433;28;20024;-68
2021/09/21 11:01:16;;;;;;;23.83;14.23;;;;;;;11.49;100.00;102335.00;5070220;28;20093;-68
2021/09/21 11:03:42;;;;;;;26.85;13.52;;;;;;;11.53;100.00;102337.28;5070320;28;20366;-68
2021/09/21 11:06:08;;;;;;;23.88;14.35;;;;;;;11.70;100.00;102343.88;5069655;28;20050;-68
2021/09/21 11:08:35;;;;;;;25.63;15.43;;;;;;;11.70;100.00;102335.84;5070771;28;20115;-69
2021/09/21 11:11:04;;;;;;;21.50;14.05;;;;;;;11.74;100.00;102326.59;5070789;28;20105;-68
2021/09/21 11:13:40;;;;;;;23.13;13.98;;;;;;;11.72;100.00;102317.84;5070918;28;20045;-68
2021/09/21 11:16:08;;;;;;;21.92;12.68;;;;;;;11.98;100.00;102312.94;5069714;28;20051;-68
2021/09/21 11:18:36;;;;;;;23.10;13.40;;;;;;;12.06;100.00;102295.34;5070779;28;20060;-68
2021/09/21 11:21:05;;;;;;;23.80;13.27;;;;;;;12.15;100.00;102295.44;5069791;28;20454;-68
2021/09/21 11:23:34;;;;;;;24.08;12.73;;;;;;;12.28;100.00;102265.72;5069958;28;20119;-68
2021/09/21 11:26:02;;;;;;;18.05;11.57;;;;;;;12.50;100.00;102261.13;5070407;28;20032;-68
2021/09/21 11:28:30;;;;;;;19.15;11.52;;;;;;;12.49;99.49;102246.88;5070578;28;20028;-68